createdAt,value
2022-11-02T00:01:24.479Z,8.68
2022-11-02T00:03:51.654Z,8.82
2022-11-02T00:06:18.887Z,8.72
2022-11-02T00:08:45.430Z,8.80
2022-11-02T00:11:12.045Z,8.79
2022-11-02T00:13:38.649Z,8.70
2022-11-02T00:16:07.926Z,8.80
2022-11-02T00:18:35.806Z,8.79
2022-11-02T00:21:02.653Z,8.75
2022-11-02T00:23:30.145Z,8.88
2022-11-02T00:26:00.681Z,8.79
2022-11-02T00:28:28.831Z,8.89
2022-11-02T00:30:55.425Z,8.84
2022-11-02T00:33:21.849Z,8.82
2022-11-02T00:35:48.492Z,8.94
2022-11-02T00:38:15.001Z,8.80
2022-11-02T00:40:41.426Z,8.87
2022-11-02T00:43:07.902Z,8.84
2022-11-02T00:45:34.520Z,8.79
2022-11-02T00:48:01.909Z,8.93
2022-11-02T00:50:28.521Z,8.81
2022-11-02T00:52:56.918Z,8.88
2022-11-02T00:55:23.409Z,8.85
2022-11-02T00:57:49.922Z,8.77
2022-11-02T01:00:16.539Z,8.87
2022-11-02T01:02:43.176Z,8.87
2022-11-02T01:05:11.348Z,8.84
2022-11-02T01:07:38.406Z,8.96
2022-11-02T01:10:06.061Z,8.83
2022-11-02T01:12:32.548Z,8.93
2022-11-02T01:14:59.018Z,8.87
2022-11-02T01:17:27.811Z,8.81
2022-11-02T01:19:54.425Z,8.92
2022-11-02T01:22:23.242Z,8.85
2022-11-02T01:24:51.562Z,8.83
2022-11-02T01:27:18.033Z,8.93
2022-11-02T01:29:44.451Z,8.84
2022-11-02T01:32:10.929Z,8.93
2022-11-02T01:34:37.380Z,8.90
2022-11-02T01:37:05.935Z,8.85
2022-11-02T01:39:32.406Z,8.97
2022-11-02T01:41:58.943Z,8.84
2022-11-02T01:44:35.559Z,8.95
2022-11-02T01:47:07.885Z,8.89
2022-11-02T01:49:36.690Z,8.88
2022-11-02T01:52:17.369Z,8.99
2022-11-02T01:54:46.923Z,8.88
2022-11-02T01:57:16.654Z,8.99
2022-11-02T02:00:09.854Z,8.94
2022-11-02T02:02:40.142Z,8.98
2022-11-02T02:05:09.642Z,9.02
2022-11-02T02:07:39.147Z,8.96
2022-11-02T02:10:08.378Z,9.13
2022-11-02T02:12:35.568Z,8.99
2022-11-02T02:15:02.261Z,9.09
2022-11-02T02:17:46.747Z,9.09
2022-11-02T02:20:16.296Z,9.07
2022-11-02T02:23:01.744Z,9.16
2022-11-02T02:25:39.162Z,9.05
2022-11-02T02:28:08.349Z,9.20
2022-11-02T02:30:40.114Z,9.09
2022-11-02T02:33:13.696Z,9.07
2022-11-02T02:35:40.066Z,9.21
2022-11-02T02:38:12.870Z,9.09
2022-11-02T02:40:41.239Z,9.20
2022-11-02T02:43:07.698Z,9.16
2022-11-02T02:45:44.641Z,9.10
2022-11-02T02:48:13.425Z,9.21
2022-11-02T02:51:00.650Z,9.10
2022-11-02T02:53:42.173Z,9.20
2022-11-02T02:56:10.196Z,9.09
2022-11-02T02:58:43.606Z,9.12
2022-11-02T03:01:12.735Z,9.17
2022-11-02T03:03:40.725Z,9.10
2022-11-02T03:06:10.849Z,9.23
2022-11-02T03:08:38.655Z,9.12
2022-11-02T03:11:12.327Z,9.15
2022-11-02T03:13:42.782Z,9.17
2022-11-02T03:16:20.437Z,9.11
2022-11-02T03:18:55.714Z,9.26
2022-11-02T03:21:26.622Z,9.13
2022-11-02T03:24:00.737Z,9.22
2022-11-02T03:26:46.937Z,9.20
2022-11-02T03:29:16.429Z,9.18
2022-11-02T03:32:06.055Z,9.24
2022-11-02T03:34:35.531Z,9.10
2022-11-02T03:37:20.406Z,9.24
2022-11-02T03:39:57.658Z,9.13
2022-11-02T03:42:26.881Z,9.19
2022-11-02T03:45:08.489Z,9.21
2022-11-02T03:47:36.745Z,9.17
2022-11-02T03:50:07.826Z,9.30
2022-11-02T03:52:37.017Z,9.21
2022-11-02T03:55:08.696Z,9.32
2022-11-02T03:58:01.736Z,9.28
2022-11-02T04:00:31.245Z,9.30
2022-11-02T04:02:59.721Z,9.39
2022-11-02T04:05:31.001Z,9.27
2022-11-02T04:08:17.245Z,9.43
2022-11-02T04:11:01.937Z,9.27
2022-11-02T04:13:46.904Z,9.39
2022-11-02T04:16:13.974Z,9.33
2022-11-02T04:19:01.504Z,9.40
2022-11-02T04:21:28.226Z,9.43
2022-11-02T04:24:15.617Z,9.40
2022-11-02T04:26:44.382Z,9.55
2022-11-02T04:29:11.039Z,9.42
2022-11-02T04:31:37.565Z,9.51
2022-11-02T04:34:04.018Z,9.47
2022-11-02T04:36:31.010Z,9.44
2022-11-02T04:38:57.879Z,9.56
2022-11-02T04:41:43.127Z,9.43
2022-11-02T04:44:14.606Z,9.56
2022-11-02T04:46:41.673Z,9.49
2022-11-02T04:49:08.624Z,9.46
2022-11-02T04:51:35.869Z,9.59
2022-11-02T04:54:02.554Z,9.42
2022-11-02T04:56:29.799Z,9.54
2022-11-02T04:59:00.037Z,9.47
2022-11-02T05:01:28.364Z,9.48
2022-11-02T05:03:55.511Z,9.57
2022-11-02T05:06:23.853Z,9.41
2022-11-02T05:08:50.340Z,9.55
2022-11-02T05:11:16.903Z,9.46
2022-11-02T05:13:46.645Z,9.46
2022-11-02T05:16:14.774Z,9.54
2022-11-02T05:18:41.617Z,9.41
2022-11-02T05:21:09.312Z,9.54
2022-11-02T05:23:35.742Z,9.48
2022-11-02T05:26:03.817Z,9.41
2022-11-02T05:28:30.930Z,9.56
2022-11-02T05:30:59.017Z,9.41
2022-11-02T05:33:30.285Z,9.47
2022-11-02T05:35:57.727Z,9.48
2022-11-02T05:38:25.123Z,9.38
2022-11-02T05:41:00.875Z,9.51
2022-11-02T05:43:27.331Z,9.35
2022-11-02T05:45:56.383Z,9.40
2022-11-02T05:48:24.205Z,9.46
2022-11-02T05:50:57.017Z,9.27
2022-11-02T05:53:27.135Z,9.43
2022-11-02T05:55:57.815Z,9.28
2022-11-02T05:58:24.496Z,9.31
2022-11-02T06:00:50.994Z,9.33
2022-11-02T06:03:18.006Z,9.23
2022-11-02T06:05:45.880Z,9.38
2022-11-02T06:08:12.378Z,9.24
2022-11-02T06:10:42.566Z,9.30
2022-11-02T06:13:10.140Z,9.32
2022-11-02T06:15:36.635Z,9.26
2022-11-02T06:18:03.125Z,9.41
2022-11-02T06:20:31.518Z,9.25
2022-11-02T06:23:01.109Z,9.37
2022-11-02T06:25:29.970Z,9.37
2022-11-02T06:27:57.058Z,9.33
2022-11-02T06:30:24.286Z,9.49
2022-11-02T06:32:51.879Z,9.40
2022-11-02T06:35:19.252Z,9.49
2022-11-02T06:37:46.286Z,9.47
2022-11-02T06:40:13.370Z,9.45
2022-11-02T06:42:45.354Z,9.57
2022-11-02T06:45:23.453Z,9.45
2022-11-02T06:47:49.897Z,9.58
2022-11-02T06:50:16.610Z,9.51
2022-11-02T06:52:47.051Z,9.56
2022-11-02T06:55:15.053Z,9.60
2022-11-02T06:57:42.123Z,9.48
2022-11-02T07:00:14.535Z,9.59
2022-11-02T07:02:45.833Z,9.49
2022-11-02T07:05:13.193Z,9.56
2022-11-02T07:07:40.609Z,9.57
2022-11-02T07:10:10.530Z,9.48
2022-11-02T07:12:37.410Z,9.61
2022-11-02T07:15:03.925Z,9.50
2022-11-02T07:17:32.309Z,9.55
2022-11-02T07:20:01.346Z,9.54
2022-11-02T07:22:27.802Z,9.51
2022-11-02T07:24:54.290Z,9.61
2022-11-02T07:27:20.801Z,9.51
2022-11-02T07:29:47.528Z,9.62
2022-11-02T07:32:14.017Z,9.63
2022-11-02T07:34:40.478Z,9.61
2022-11-02T07:37:06.946Z,9.75
2022-11-02T07:39:33.484Z,9.62
2022-11-02T07:41:59.995Z,9.71
2022-11-02T07:44:26.477Z,9.76
2022-11-02T07:46:52.969Z,9.67
2022-11-02T07:49:21.601Z,9.80
2022-11-02T07:51:48.197Z,9.70
2022-11-02T07:54:14.654Z,9.77
2022-11-02T07:56:43.743Z,9.85
2022-11-02T07:59:10.642Z,9.73
2022-11-02T08:01:37.336Z,9.87
2022-11-02T08:04:04.614Z,9.85
2022-11-02T08:06:31.695Z,9.85
2022-11-02T08:08:58.167Z,9.97
2022-11-02T08:11:26.430Z,9.86
2022-11-02T08:13:52.938Z,9.99
2022-11-02T08:16:19.382Z,9.97
2022-11-02T08:18:47.927Z,10.00
2022-11-02T08:21:14.322Z,10.11
2022-11-02T08:23:40.783Z,10.03
2022-11-02T08:26:07.238Z,10.15
2022-11-02T08:28:36.860Z,10.16
2022-11-02T08:31:03.383Z,10.17
2022-11-02T08:33:29.913Z,10.29
2022-11-02T08:36:01.271Z,10.17
2022-11-02T08:38:27.664Z,10.29
2022-11-02T08:40:54.993Z,10.24
2022-11-02T08:43:21.529Z,10.23
2022-11-02T08:46:13.711Z,10.33
2022-11-02T08:48:34.875Z,10.24
2022-11-02T08:51:01.412Z,10.41
2022-11-02T08:53:28.383Z,10.33
2022-11-02T08:55:57.048Z,10.43
2022-11-02T08:58:23.979Z,10.47
2022-11-02T09:00:52.409Z,10.46
2022-11-02T09:03:26.015Z,10.63
2022-11-02T09:05:57.550Z,10.51
2022-11-02T09:10:51.827Z,10.71
2022-11-02T09:13:20.884Z,10.78
2022-11-02T09:15:49.708Z,10.86
2022-11-02T09:18:16.366Z,10.79
2022-11-02T09:20:42.799Z,10.92
2022-11-02T09:23:09.290Z,10.86
2022-11-02T09:25:35.842Z,10.88
2022-11-02T09:28:02.365Z,10.93
2022-11-02T09:30:29.001Z,10.85
2022-11-02T09:32:56.874Z,11.02
2022-11-02T09:35:23.881Z,10.97
2022-11-02T09:37:52.665Z,11.15
2022-11-02T09:40:23.166Z,11.32
2022-11-02T09:43:10.422Z,11.32
2022-11-02T09:45:51.745Z,11.36
2022-11-02T09:48:28.850Z,11.05
2022-11-02T09:51:08.850Z,11.16
2022-11-02T09:53:44.401Z,10.97
2022-11-02T09:56:12.202Z,11.06
2022-11-02T09:58:40.191Z,11.06
2022-11-02T10:01:33.210Z,11.06
2022-11-02T10:04:06.506Z,11.18
2022-11-02T10:06:35.765Z,11.06
2022-11-02T10:09:11.248Z,11.19
2022-11-02T10:11:40.523Z,11.07
2022-11-02T10:14:19.299Z,11.11
2022-11-02T10:16:53.519Z,11.08
2022-11-02T10:19:23.869Z,11.02
2022-11-02T10:21:57.204Z,11.10
2022-11-02T10:24:25.573Z,10.95
2022-11-02T10:27:02.734Z,11.10
2022-11-02T10:29:47.708Z,11.04
2022-11-02T10:32:14.946Z,11.14
2022-11-02T10:34:42.283Z,11.14
2022-11-02T10:37:17.772Z,11.11
2022-11-02T10:39:47.189Z,11.24
2022-11-02T10:42:32.268Z,11.04
2022-11-02T10:45:17.091Z,11.14
2022-11-02T10:48:03.205Z,11.01
2022-11-02T10:50:53.456Z,11.04
2022-11-02T10:53:39.948Z,10.98
2022-11-02T10:56:24.092Z,11.04
2022-11-02T10:58:50.612Z,11.08
2022-11-02T11:01:17.165Z,11.14
2022-11-02T11:03:56.112Z,11.28
2022-11-02T11:06:27.801Z,11.17
2022-11-02T11:08:59.024Z,11.31
2022-11-02T11:11:27.214Z,11.23
2022-11-02T11:16:48.292Z,11.24
2022-11-02T11:22:26.211Z,11.40
2022-11-02T11:24:53.094Z,11.35
2022-11-02T11:27:23.121Z,11.45
2022-11-02T11:29:52.117Z,11.29
2022-11-02T11:32:29.919Z,11.31
2022-11-02T11:35:04.575Z,11.23
2022-11-02T11:37:31.379Z,11.20
2022-11-02T11:40:00.275Z,11.27
2022-11-02T11:42:28.912Z,11.11
2022-11-02T11:45:01.291Z,11.21
2022-11-02T11:47:29.619Z,11.18
2022-11-02T11:50:19.149Z,11.23
2022-11-02T11:52:44.218Z,11.27
2022-11-02T11:55:26.630Z,11.21
2022-11-02T11:58:08.194Z,11.33
2022-11-02T12:00:34.850Z,11.21
2022-11-02T12:03:11.375Z,11.35
2022-11-02T12:05:57.927Z,11.25
2022-11-02T12:08:34.860Z,11.30
2022-11-02T12:11:04.366Z,11.27
2022-11-02T12:13:43.554Z,11.29
2022-11-02T12:16:32.358Z,11.35
2022-11-02T12:19:01.566Z,11.26
2022-11-02T12:21:57.403Z,11.37
2022-11-02T12:24:25.976Z,11.24
2022-11-02T12:27:20.560Z,11.36
2022-11-02T12:30:01.257Z,11.25
2022-11-02T12:32:27.659Z,11.32
2022-11-02T12:35:30.282Z,11.32
2022-11-02T12:38:15.469Z,11.38
2022-11-02T12:40:41.885Z,11.42
2022-11-02T12:43:19.716Z,11.32
2022-11-02T12:46:01.316Z,11.43
2022-11-02T12:48:37.229Z,11.30
2022-11-02T12:51:13.283Z,11.36
2022-11-02T12:53:43.960Z,11.20
2022-11-02T12:56:19.888Z,11.27
2022-11-02T12:58:46.517Z,11.24
2022-11-02T13:01:25.858Z,11.14
2022-11-02T13:04:01.684Z,11.25
2022-11-02T13:06:37.670Z,11.05
2022-11-02T13:09:13.253Z,11.18
2022-11-02T13:11:44.617Z,11.06
2022-11-02T13:14:20.326Z,11.10
2022-11-02T13:16:59.626Z,11.06
2022-11-02T13:19:39.182Z,11.04
2022-11-02T13:22:10.818Z,11.12
2022-11-02T13:24:44.064Z,11.01
2022-11-02T13:27:36.004Z,11.13
2022-11-02T13:30:06.244Z,11.00
2022-11-02T13:32:35.680Z,11.06
2022-11-02T13:35:27.395Z,10.97
2022-11-02T13:37:57.173Z,11.01
2022-11-02T13:40:32.538Z,11.00
2022-11-02T13:43:07.118Z,10.88
2022-11-02T13:45:54.855Z,10.97
2022-11-02T13:48:39.997Z,10.80
2022-11-02T13:51:26.611Z,10.92
2022-11-02T13:53:55.903Z,10.80
2022-11-02T13:56:24.456Z,10.84
2022-11-02T13:58:58.626Z,10.81
2022-11-02T14:01:25.692Z,10.78
2022-11-02T14:04:01.385Z,10.88
2022-11-02T14:06:30.947Z,10.74
2022-11-02T14:09:02.729Z,10.86
2022-11-02T14:11:41.255Z,10.73
2022-11-02T14:14:10.685Z,10.76
2022-11-02T14:16:42.774Z,10.75
2022-11-02T14:19:20.738Z,10.65
2022-11-02T14:21:59.405Z,10.79
2022-11-02T14:24:35.132Z,10.65
2022-11-02T14:27:03.850Z,10.76
2022-11-02T14:29:42.439Z,10.62
2022-11-02T14:32:15.605Z,10.69
2022-11-02T14:34:48.099Z,10.70
2022-11-02T14:37:28.364Z,10.67
2022-11-02T14:40:08.211Z,10.72
2022-11-02T14:42:37.955Z,10.55
2022-11-02T14:45:07.175Z,10.66
2022-11-02T14:47:35.521Z,10.56
2022-11-02T14:50:01.976Z,10.60
2022-11-02T14:52:35.808Z,10.60
2022-11-02T14:55:04.356Z,10.53
2022-11-02T14:57:42.121Z,10.64
2022-11-02T15:00:23.135Z,10.49
2022-11-02T15:02:50.120Z,10.59
2022-11-02T15:05:26.888Z,10.50
2022-11-02T15:07:58.342Z,10.50
2022-11-02T15:10:30.970Z,10.53
2022-11-02T15:13:29.764Z,10.45
2022-11-02T15:15:56.169Z,10.56
2022-11-02T15:18:31.605Z,10.43
2022-11-02T15:21:13.031Z,10.52
2022-11-02T15:23:42.326Z,10.39
2022-11-02T15:26:12.406Z,10.43
2022-11-02T15:28:39.099Z,10.43
2022-11-02T15:31:07.587Z,10.35
2022-11-02T15:33:36.627Z,10.44
2022-11-02T15:36:04.137Z,10.33
2022-11-02T15:38:36.704Z,10.37
2022-11-02T15:41:14.332Z,10.35
2022-11-02T15:43:43.539Z,10.27
2022-11-02T15:46:39.012Z,10.40
2022-11-02T15:49:11.210Z,10.30
2022-11-02T15:51:53.952Z,10.38
2022-11-02T15:54:47.553Z,10.35
2022-11-02T15:57:20.050Z,10.39
2022-11-02T15:59:58.722Z,10.42
2022-11-02T16:02:25.159Z,10.34
2022-11-02T16:04:53.806Z,10.47
2022-11-02T16:07:21.737Z,10.33
2022-11-02T16:09:48.344Z,10.42
2022-11-02T16:12:21.789Z,10.35
2022-11-02T16:15:09.139Z,10.26
2022-11-02T16:17:35.556Z,10.39
2022-11-02T16:20:28.384Z,10.24
2022-11-02T16:23:05.268Z,10.36
2022-11-02T16:25:40.376Z,10.28
2022-11-02T16:28:25.462Z,10.30
2022-11-02T16:31:05.463Z,10.29
2022-11-02T16:33:41.169Z,10.20
2022-11-02T16:36:08.910Z,10.32
2022-11-02T16:38:36.252Z,10.18
2022-11-02T16:41:03.391Z,10.26
2022-11-02T16:43:30.005Z,10.20
2022-11-02T16:46:00.111Z,10.17
2022-11-02T16:48:27.985Z,10.27
2022-11-02T16:51:00.589Z,10.14
2022-11-02T16:53:29.186Z,10.25
2022-11-02T16:56:00.644Z,10.17
2022-11-02T16:58:27.549Z,10.20
2022-11-02T17:00:54.454Z,10.23
2022-11-02T17:03:23.436Z,10.14
2022-11-02T17:05:51.447Z,10.26
2022-11-02T17:08:23.805Z,10.14
2022-11-02T17:10:54.134Z,10.12
2022-11-02T17:13:22.194Z,10.24
2022-11-02T17:15:49.865Z,10.12
2022-11-02T17:18:25.926Z,10.19
2022-11-02T17:21:11.223Z,10.14
2022-11-02T17:23:37.701Z,10.08
2022-11-02T17:26:16.418Z,10.18
2022-11-02T17:28:44.959Z,10.03
2022-11-02T17:31:19.012Z,10.15
2022-11-02T17:33:48.435Z,10.04
2022-11-02T17:36:15.477Z,10.04
2022-11-02T17:38:42.133Z,10.14
2022-11-02T17:41:36.910Z,9.96
2022-11-02T17:44:03.776Z,10.08
2022-11-02T17:46:32.688Z,9.97
2022-11-02T17:49:05.064Z,9.92
2022-11-02T17:51:31.934Z,10.04
2022-11-02T17:53:58.400Z,9.89
2022-11-02T17:56:24.788Z,10.02
2022-11-02T17:58:51.174Z,9.93
2022-11-02T18:01:18.406Z,9.87
2022-11-02T18:03:46.474Z,10.01
2022-11-02T18:06:12.956Z,9.87
2022-11-02T18:08:57.818Z,9.95
2022-11-02T18:11:26.466Z,9.88
2022-11-02T18:13:53.460Z,9.82
2022-11-02T18:16:20.458Z,9.90
2022-11-02T18:18:46.930Z,9.74
2022-11-02T18:21:13.510Z,9.86
2022-11-02T18:23:41.080Z,9.81
2022-11-02T18:26:09.563Z,9.74
2022-11-02T18:28:36.032Z,9.85
2022-11-02T18:31:02.659Z,9.72
2022-11-02T18:33:29.281Z,9.83
2022-11-02T18:36:01.910Z,9.74
2022-11-02T18:38:28.393Z,9.70
2022-11-02T18:40:54.944Z,9.79
2022-11-02T18:43:21.406Z,9.67
2022-11-02T18:45:47.862Z,9.76
2022-11-02T18:48:14.296Z,9.64
2022-11-02T18:50:40.688Z,9.63
2022-11-02T18:53:07.106Z,9.64
2022-11-02T18:55:33.615Z,9.48
2022-11-02T18:58:00.131Z,9.60
2022-11-02T19:00:26.520Z,9.51
2022-11-02T19:02:54.949Z,9.56
2022-11-02T19:05:40.960Z,9.62
2022-11-02T19:08:27.304Z,9.53
2022-11-02T19:10:53.734Z,9.64
2022-11-02T19:13:20.389Z,9.46
2022-11-02T19:15:46.918Z,9.59
2022-11-02T19:18:13.329Z,9.49
2022-11-02T19:20:40.268Z,9.50
2022-11-02T19:23:08.575Z,9.55
2022-11-02T19:25:35.281Z,9.39
2022-11-02T19:28:01.839Z,9.54
2022-11-02T19:30:28.253Z,9.45
2022-11-02T19:32:54.758Z,9.45
2022-11-02T19:35:21.158Z,9.50
2022-11-02T19:37:47.622Z,9.30
2022-11-02T19:40:14.235Z,9.38
2022-11-02T19:42:41.522Z,9.23
2022-11-02T19:45:08.209Z,9.26
2022-11-02T19:47:34.702Z,9.31
2022-11-02T19:50:01.149Z,9.22
2022-11-02T19:52:27.615Z,9.36
2022-11-02T19:54:54.102Z,9.25
2022-11-02T19:57:20.945Z,9.32
2022-11-02T19:59:49.478Z,9.38
2022-11-02T20:02:16.101Z,9.28
2022-11-02T20:04:44.299Z,9.44
2022-11-02T20:07:11.437Z,9.28
2022-11-02T20:09:37.837Z,9.33
2022-11-02T20:12:04.904Z,9.29
2022-11-02T20:14:33.467Z,9.22
2022-11-02T20:17:18.149Z,9.35
2022-11-02T20:19:48.567Z,9.22
2022-11-02T20:22:15.027Z,9.37
2022-11-02T20:24:41.421Z,9.27
2022-11-02T20:27:08.302Z,9.21
2022-11-02T20:29:34.739Z,9.37
2022-11-02T20:32:01.325Z,9.23
2022-11-02T20:34:27.935Z,9.32
2022-11-02T20:36:56.579Z,9.31
2022-11-02T20:39:22.985Z,9.30
2022-11-02T20:41:56.385Z,9.44
2022-11-02T20:44:24.038Z,9.30
2022-11-02T20:46:53.311Z,9.42
2022-11-02T20:49:22.105Z,9.34
2022-11-02T20:51:55.858Z,9.35
2022-11-02T20:54:22.502Z,9.44
2022-11-02T20:56:49.655Z,9.30
2022-11-02T20:59:16.269Z,9.43
2022-11-02T21:01:43.049Z,9.31
2022-11-02T21:04:13.874Z,9.34
2022-11-02T21:06:45.586Z,9.34
2022-11-02T21:09:12.417Z,9.24
2022-11-02T21:11:57.742Z,9.37
2022-11-02T21:14:24.208Z,9.20
2022-11-02T21:16:50.616Z,9.30
2022-11-02T21:19:17.101Z,9.25
2022-11-02T21:21:43.590Z,9.18
2022-11-02T21:24:10.058Z,9.30
2022-11-02T21:26:36.714Z,9.17
2022-11-02T21:29:05.446Z,9.31
2022-11-02T21:31:33.742Z,9.20
2022-11-02T21:34:00.279Z,9.18
2022-11-02T21:36:28.521Z,9.25
2022-11-02T21:38:56.014Z,9.11
2022-11-02T21:41:26.191Z,9.22
2022-11-02T21:43:52.587Z,9.10
2022-11-02T21:46:22.370Z,9.13
2022-11-02T21:48:48.889Z,9.16
2022-11-02T21:51:16.429Z,9.06
2022-11-02T21:53:43.645Z,9.15
2022-11-02T21:56:11.279Z,9.07
2022-11-02T21:58:43.007Z,9.08
2022-11-02T22:01:33.251Z,9.05
2022-11-02T22:04:00.169Z,8.96
2022-11-02T22:06:31.251Z,9.11
2022-11-02T22:08:59.316Z,8.96
2022-11-02T22:11:29.333Z,9.04
2022-11-02T22:13:56.934Z,8.98
2022-11-02T22:16:31.794Z,8.88
2022-11-02T22:19:03.438Z,9.03
2022-11-02T22:21:31.567Z,8.86
2022-11-02T22:23:58.370Z,8.96
2022-11-02T22:26:26.182Z,8.93
2022-11-02T22:28:53.149Z,8.84
2022-11-02T22:31:23.761Z,8.99
2022-11-02T22:33:51.391Z,8.83
2022-11-02T22:36:19.667Z,8.92
2022-11-02T22:38:51.367Z,8.88
2022-11-02T22:41:22.826Z,8.79
2022-11-02T22:43:50.642Z,8.95
2022-11-02T22:46:17.155Z,8.78
2022-11-02T22:48:43.650Z,8.89
2022-11-02T22:51:10.483Z,8.87
2022-11-02T22:53:37.518Z,8.80
2022-11-02T22:56:08.451Z,8.94
2022-11-02T22:58:35.473Z,8.80
2022-11-02T23:01:02.249Z,8.84
2022-11-02T23:03:30.066Z,8.81
2022-11-02T23:05:57.932Z,8.71
2022-11-02T23:08:24.465Z,8.84
2022-11-02T23:11:16.166Z,8.61
2022-11-02T23:13:43.728Z,8.68
2022-11-02T23:16:23.457Z,8.57
2022-11-02T23:19:27.068Z,8.52
2022-11-02T23:22:29.233Z,8.55
2022-11-02T23:25:12.053Z,8.44
2022-11-02T23:27:58.538Z,8.46
2022-11-02T23:30:44.731Z,8.29
2022-11-02T23:33:13.586Z,8.47
2022-11-02T23:35:59.009Z,8.28
2022-11-02T23:38:47.770Z,8.46
2022-11-02T23:41:14.526Z,8.28
2022-11-02T23:43:40.989Z,8.32
2022-11-02T23:46:07.421Z,8.35
2022-11-02T23:48:33.818Z,8.23
2022-11-02T23:51:19.354Z,8.40
2022-11-02T23:54:04.196Z,8.31
2022-11-02T23:56:43.780Z,8.43
2022-11-02T23:59:10.739Z,8.44
